createdAt,value
2023-03-19T00:00:56.409Z,1.43
2023-03-19T00:03:24.797Z,1.60
2023-03-19T00:05:54.737Z,1.60
2023-03-19T00:08:23.734Z,1.20
2023-03-19T00:10:52.082Z,3.30
2023-03-19T00:13:21.423Z,3.70
2023-03-19T00:15:49.700Z,2.60
2023-03-19T00:18:18.032Z,1.37
2023-03-19T00:20:46.352Z,1.30
2023-03-19T00:23:16.302Z,1.60
2023-03-19T00:25:44.883Z,1.37
2023-03-19T00:28:13.204Z,2.20
2023-03-19T00:30:42.036Z,1.53
2023-03-19T00:33:10.725Z,1.37
2023-03-19T00:35:41.379Z,1.20
2023-03-19T00:38:10.013Z,2.10
2023-03-19T00:40:39.689Z,1.70
2023-03-19T00:43:08.038Z,1.30
2023-03-19T00:45:36.550Z,2.07
2023-03-19T00:48:05.118Z,1.30
2023-03-19T00:50:33.513Z,2.17
2023-03-19T00:53:01.923Z,1.47
2023-03-19T00:55:30.317Z,2.10
2023-03-19T00:58:00.047Z,2.00
2023-03-19T01:00:28.515Z,3.03
2023-03-19T01:02:56.809Z,3.70
2023-03-19T01:05:25.380Z,1.63
2023-03-19T01:07:53.904Z,1.10
2023-03-19T01:10:24.201Z,1.30
2023-03-19T01:12:52.620Z,2.30
2023-03-19T01:15:25.202Z,1.53
2023-03-19T01:17:53.578Z,1.90
2023-03-19T01:20:24.200Z,3.77
2023-03-19T01:22:53.191Z,4.43
2023-03-19T01:25:21.565Z,6.60
2023-03-19T01:28:01.829Z,4.10
2023-03-19T01:30:31.933Z,2.37
2023-03-19T01:33:03.457Z,3.23
2023-03-19T01:35:39.556Z,1.40
2023-03-19T01:38:08.080Z,3.00
2023-03-19T01:40:37.555Z,1.40
2023-03-19T01:43:18.531Z,1.40
2023-03-19T01:46:02.486Z,1.93
2023-03-19T01:48:37.306Z,1.63
2023-03-19T01:51:12.271Z,1.40
2023-03-19T01:54:03.710Z,2.40
2023-03-19T01:56:38.673Z,1.50
2023-03-19T01:59:16.829Z,1.87
2023-03-19T02:02:23.457Z,3.13
2023-03-19T02:04:57.018Z,1.37
2023-03-19T02:07:26.515Z,1.57
2023-03-19T02:09:55.162Z,2.77
2023-03-19T02:12:23.567Z,1.10
2023-03-19T02:14:52.078Z,2.37
2023-03-19T02:17:23.981Z,2.17
2023-03-19T02:20:00.915Z,1.53
2023-03-19T02:22:32.275Z,1.30
2023-03-19T02:25:07.717Z,3.70
2023-03-19T02:27:40.022Z,3.97
2023-03-19T02:30:20.998Z,1.50
2023-03-19T02:32:49.598Z,4.10
2023-03-19T02:35:19.411Z,2.30
2023-03-19T02:37:47.729Z,2.03
2023-03-19T02:40:20.922Z,1.70
2023-03-19T02:42:50.678Z,2.60
2023-03-19T02:45:20.054Z,2.90
2023-03-19T02:47:48.456Z,2.77
2023-03-19T02:50:16.662Z,5.00
2023-03-19T02:52:44.969Z,2.20
2023-03-19T02:55:13.237Z,2.30
2023-03-19T02:57:41.580Z,2.13
2023-03-19T03:00:13.286Z,2.80
2023-03-19T03:02:41.815Z,2.53
2023-03-19T03:05:10.723Z,3.87
2023-03-19T03:07:40.315Z,2.30
2023-03-19T03:10:09.396Z,3.13
2023-03-19T03:12:38.646Z,5.13
2023-03-19T03:15:08.580Z,2.57
2023-03-19T03:17:39.697Z,2.60
2023-03-19T03:20:11.567Z,3.47
2023-03-19T03:22:40.455Z,3.43
2023-03-19T03:25:10.486Z,3.87
2023-03-19T03:27:39.872Z,2.63
2023-03-19T03:30:10.801Z,3.50
2023-03-19T03:32:41.473Z,3.70
2023-03-19T03:35:10.559Z,3.93
2023-03-19T03:37:39.703Z,6.80
2023-03-19T03:40:09.377Z,4.73
2023-03-19T03:42:38.232Z,5.83
2023-03-19T03:45:10.792Z,2.27
2023-03-19T03:47:41.065Z,3.50
2023-03-19T03:50:11.125Z,2.83
2023-03-19T03:52:41.026Z,2.60
2023-03-19T03:55:10.545Z,3.63
2023-03-19T03:57:38.841Z,2.93
2023-03-19T04:00:08.219Z,2.90
2023-03-19T04:02:43.439Z,9.23
2023-03-19T04:05:15.719Z,6.60
2023-03-19T04:07:47.850Z,2.70
2023-03-19T04:10:16.707Z,2.83
2023-03-19T04:12:45.927Z,2.50
2023-03-19T04:15:15.532Z,2.33
2023-03-19T04:17:47.748Z,4.27
2023-03-19T04:20:18.659Z,4.63
2023-03-19T04:22:47.389Z,4.37
2023-03-19T04:25:15.795Z,3.90
2023-03-19T04:27:44.367Z,3.00
2023-03-19T04:30:14.250Z,3.07
2023-03-19T04:32:44.495Z,2.20
2023-03-19T04:35:14.761Z,1.77
2023-03-19T04:37:48.337Z,3.03
2023-03-19T04:40:18.484Z,1.70
2023-03-19T04:42:47.951Z,1.63
2023-03-19T04:45:34.372Z,60.33
2023-03-19T04:48:03.896Z,46.27
2023-03-19T04:50:36.183Z,34.83
2023-03-19T04:53:06.708Z,37.00
2023-03-19T04:55:35.341Z,18.50
2023-03-19T04:58:09.085Z,10.80
2023-03-19T05:00:38.704Z,7.30
2023-03-19T05:03:08.074Z,5.20
2023-03-19T05:05:38.953Z,2.60
2023-03-19T05:08:10.038Z,4.27
2023-03-19T05:10:39.414Z,2.07
2023-03-19T05:13:09.169Z,2.07
2023-03-19T05:15:44.359Z,2.10
2023-03-19T05:18:14.795Z,2.00
2023-03-19T05:20:47.772Z,1.77
2023-03-19T05:23:22.890Z,2.93
2023-03-19T05:26:00.891Z,2.80
2023-03-19T05:28:47.892Z,2.00
2023-03-19T05:31:23.818Z,3.10
2023-03-19T05:33:55.158Z,2.00
2023-03-19T05:36:25.806Z,2.10
2023-03-19T05:39:02.037Z,2.40
2023-03-19T05:41:35.521Z,2.00
2023-03-19T05:44:07.351Z,2.80
2023-03-19T05:47:05.113Z,2.17
2023-03-19T05:49:36.512Z,2.40
2023-03-19T05:52:07.683Z,2.40
2023-03-19T05:54:36.550Z,3.13
2023-03-19T05:57:12.938Z,3.03
2023-03-19T05:59:46.885Z,2.60
2023-03-19T06:02:51.751Z,5.37
2023-03-19T06:05:42.821Z,28.47
2023-03-19T06:08:28.344Z,21.37
2023-03-19T06:11:06.442Z,10.97
2023-03-19T06:13:36.428Z,9.80
2023-03-19T06:16:11.489Z,5.10
2023-03-19T06:18:49.281Z,4.30
2023-03-19T06:21:18.480Z,2.60
2023-03-19T06:23:48.268Z,2.93
2023-03-19T06:26:21.206Z,2.07
2023-03-19T06:28:55.126Z,2.70
2023-03-19T06:31:24.919Z,2.63
2023-03-19T06:34:20.037Z,2.70
2023-03-19T06:36:53.884Z,2.57
2023-03-19T06:39:23.970Z,3.30
2023-03-19T06:41:52.336Z,4.03
2023-03-19T06:44:25.477Z,2.20
2023-03-19T06:46:53.980Z,2.37
2023-03-19T06:49:23.475Z,2.83
2023-03-19T06:51:56.195Z,2.33
2023-03-19T06:54:26.078Z,2.80
2023-03-19T06:56:54.447Z,2.77
2023-03-19T06:59:22.989Z,3.83
2023-03-19T07:01:51.555Z,2.20
2023-03-19T07:04:20.290Z,3.80
2023-03-19T07:06:49.038Z,2.90
2023-03-19T07:09:17.427Z,2.43
2023-03-19T07:11:47.093Z,3.30
2023-03-19T07:14:15.393Z,2.60
2023-03-19T07:16:43.817Z,29.87
2023-03-19T07:19:12.157Z,31.93
2023-03-19T07:21:40.583Z,20.70
2023-03-19T07:24:09.708Z,11.87
2023-03-19T07:26:38.421Z,7.70
2023-03-19T07:29:12.316Z,5.30
2023-03-19T07:31:40.940Z,4.43
2023-03-19T07:34:09.318Z,2.80
2023-03-19T07:36:37.814Z,3.17
2023-03-19T07:39:06.241Z,2.57
2023-03-19T07:41:34.646Z,2.87
2023-03-19T07:44:03.468Z,2.50
2023-03-19T07:46:33.134Z,2.50
2023-03-19T07:49:01.487Z,2.00
2023-03-19T07:51:29.869Z,2.73
2023-03-19T07:53:58.168Z,2.80
2023-03-19T07:56:26.733Z,3.33
2023-03-19T07:58:55.168Z,2.40
2023-03-19T08:01:23.565Z,2.23
2023-03-19T08:03:53.478Z,2.67
2023-03-19T08:06:22.057Z,2.10
2023-03-19T08:08:50.523Z,2.00
2023-03-19T08:11:18.866Z,31.57
2023-03-19T08:13:47.212Z,46.80
2023-03-19T08:16:15.645Z,27.60
2023-03-19T08:18:44.173Z,18.43
2023-03-19T08:21:13.887Z,11.20
2023-03-19T08:23:42.477Z,7.40
2023-03-19T08:26:10.907Z,5.80
2023-03-19T08:28:39.286Z,4.30
2023-03-19T08:31:09.213Z,2.77
2023-03-19T08:33:37.845Z,3.20
2023-03-19T08:36:08.474Z,2.90
2023-03-19T08:38:38.790Z,2.47
2023-03-19T08:41:07.964Z,3.07
2023-03-19T08:43:37.806Z,4.53
2023-03-19T08:46:07.362Z,2.63
2023-03-19T08:48:35.781Z,2.80
2023-03-19T08:51:04.905Z,2.50
2023-03-19T08:53:34.624Z,3.33
2023-03-19T08:56:05.570Z,3.53
2023-03-19T08:58:34.617Z,2.17
2023-03-19T09:01:03.766Z,2.40
2023-03-19T09:03:32.645Z,3.03
2023-03-19T09:06:02.040Z,1.83
2023-03-19T09:08:32.764Z,1.80
2023-03-19T09:11:01.306Z,3.40
2023-03-19T09:13:31.312Z,21.80
2023-03-19T09:15:59.912Z,39.43
2023-03-19T09:18:28.581Z,18.73
2023-03-19T09:20:57.204Z,10.50
2023-03-19T09:23:25.571Z,6.30
2023-03-19T09:25:53.945Z,6.10
2023-03-19T09:28:22.370Z,3.70
2023-03-19T09:30:52.920Z,3.37
2023-03-19T09:33:22.212Z,3.50
2023-03-19T09:35:52.587Z,3.77
2023-03-19T09:38:21.865Z,3.50
2023-03-19T09:41:02.485Z,4.50
2023-03-19T09:43:47.817Z,3.30
2023-03-19T09:46:22.865Z,2.77
2023-03-19T09:48:57.520Z,3.77
2023-03-19T09:51:31.689Z,3.70
2023-03-19T09:54:05.252Z,3.47
2023-03-19T09:56:34.400Z,3.80
2023-03-19T09:59:03.275Z,3.70
2023-03-19T10:01:37.571Z,2.97
2023-03-19T10:04:29.960Z,2.67
2023-03-19T10:07:06.653Z,2.87
2023-03-19T10:09:46.338Z,2.63
2023-03-19T10:12:27.755Z,3.10
2023-03-19T10:15:11.455Z,4.67
2023-03-19T10:17:44.063Z,2.63
2023-03-19T10:20:21.387Z,2.83
2023-03-19T10:22:54.803Z,3.10
2023-03-19T10:25:27.602Z,3.10
2023-03-19T10:28:01.498Z,2.37
2023-03-19T10:30:34.066Z,21.67
2023-03-19T10:33:16.267Z,35.63
2023-03-19T10:35:46.205Z,24.73
2023-03-19T10:38:20.949Z,15.87
2023-03-19T10:41:00.332Z,8.43
2023-03-19T10:43:31.100Z,5.67
2023-03-19T10:45:59.674Z,4.23
2023-03-19T10:48:30.697Z,3.50
2023-03-19T10:51:01.402Z,3.00
2023-03-19T10:53:35.874Z,2.60
2023-03-19T10:56:06.370Z,6.63
2023-03-19T10:58:36.716Z,2.63
2023-03-19T11:01:07.742Z,3.90
2023-03-19T11:03:40.978Z,1.87
2023-03-19T11:06:19.354Z,1.37
2023-03-19T11:08:55.382Z,1.63
2023-03-19T11:11:34.084Z,1.67
2023-03-19T11:14:09.250Z,2.20
2023-03-19T11:16:57.873Z,3.23
2023-03-19T11:19:29.925Z,2.10
2023-03-19T11:22:08.804Z,2.60
2023-03-19T11:24:39.137Z,2.93
2023-03-19T11:27:09.222Z,1.60
2023-03-19T11:29:41.783Z,1.43
2023-03-19T11:32:34.767Z,1.50
2023-03-19T11:35:10.613Z,2.00
2023-03-19T11:37:52.970Z,2.10
2023-03-19T11:40:31.559Z,2.53
2023-03-19T11:43:22.216Z,1.90
2023-03-19T11:46:02.802Z,2.53
2023-03-19T11:48:43.479Z,2.80
2023-03-19T11:51:20.640Z,4.23
2023-03-19T11:54:01.118Z,2.43
2023-03-19T11:56:36.953Z,3.57
2023-03-19T11:59:32.289Z,8.13
2023-03-19T12:02:27.394Z,14.80
2023-03-19T12:05:07.048Z,7.60
2023-03-19T12:07:45.806Z,5.10
2023-03-19T12:10:31.239Z,3.57
2023-03-19T12:13:09.619Z,4.53
2023-03-19T12:15:43.521Z,2.50
2023-03-19T12:18:24.787Z,3.43
2023-03-19T12:21:03.221Z,1.47
2023-03-19T12:23:44.234Z,1.43
2023-03-19T12:26:22.375Z,1.30
2023-03-19T12:28:59.978Z,1.40
2023-03-19T12:31:48.709Z,1.57
2023-03-19T12:34:29.811Z,2.80
2023-03-19T12:37:08.140Z,1.70
2023-03-19T12:39:43.404Z,1.57
2023-03-19T12:42:16.571Z,1.53
2023-03-19T12:44:50.772Z,1.53
2023-03-19T12:47:24.037Z,1.10
2023-03-19T12:49:56.964Z,2.17
2023-03-19T12:52:28.439Z,1.33
2023-03-19T12:55:05.237Z,3.13
2023-03-19T12:57:37.785Z,1.30
2023-03-19T13:00:12.311Z,1.93
2023-03-19T13:02:45.351Z,1.90
2023-03-19T13:05:25.320Z,1.70
2023-03-19T13:08:00.704Z,3.20
2023-03-19T13:10:32.012Z,4.10
2023-03-19T13:13:06.459Z,1.60
2023-03-19T13:15:41.143Z,1.33
2023-03-19T13:18:21.017Z,1.90
2023-03-19T13:21:06.766Z,2.17
2023-03-19T13:23:38.473Z,1.70
2023-03-19T13:26:12.640Z,2.00
2023-03-19T13:28:56.869Z,2.07
2023-03-19T13:31:27.540Z,2.47
2023-03-19T13:34:03.210Z,1.50
2023-03-19T13:36:36.541Z,2.07
2023-03-19T13:39:05.744Z,1.77
2023-03-19T13:41:52.613Z,2.20
2023-03-19T13:44:37.020Z,2.10
2023-03-19T13:47:33.442Z,1.90
2023-03-19T13:50:23.673Z,1.90
2023-03-19T13:52:54.020Z,2.87
2023-03-19T13:55:34.799Z,2.87
2023-03-19T13:58:38.852Z,2.03
2023-03-19T14:01:08.454Z,2.10
2023-03-19T14:03:39.542Z,1.87
2023-03-19T14:06:36.667Z,2.37
2023-03-19T14:09:06.848Z,2.30
2023-03-19T14:11:37.589Z,2.40
2023-03-19T14:14:14.315Z,1.80
2023-03-19T14:16:46.561Z,2.70
2023-03-19T14:19:21.502Z,16.67
2023-03-19T14:22:11.471Z,30.53
2023-03-19T14:24:58.759Z,22.33
2023-03-19T14:27:33.179Z,14.83
2023-03-19T14:30:12.224Z,10.13
2023-03-19T14:32:43.269Z,8.93
2023-03-19T14:35:17.022Z,6.90
2023-03-19T14:37:50.204Z,5.90
2023-03-19T14:40:22.551Z,4.17
2023-03-19T14:43:02.043Z,3.90
2023-03-19T14:45:44.705Z,3.13
2023-03-19T14:48:48.795Z,3.40
2023-03-19T14:51:46.232Z,2.73
2023-03-19T14:54:25.225Z,3.53
2023-03-19T14:56:53.657Z,2.93
2023-03-19T14:59:22.154Z,4.57
2023-03-19T15:01:54.337Z,4.30
2023-03-19T15:04:26.200Z,6.73
2023-03-19T15:06:58.354Z,9.83
2023-03-19T15:09:30.086Z,21.23
2023-03-19T15:12:33.847Z,25.50
2023-03-19T15:15:19.142Z,16.30
2023-03-19T15:18:04.301Z,11.23
2023-03-19T15:20:38.041Z,6.90
2023-03-19T15:23:20.000Z,5.03
2023-03-19T15:25:57.762Z,4.70
2023-03-19T15:28:28.416Z,3.13
2023-03-19T15:31:09.942Z,3.27
2023-03-19T15:33:48.228Z,3.00
2023-03-19T15:36:20.190Z,2.80
2023-03-19T15:38:53.307Z,3.13
2023-03-19T15:41:23.055Z,3.23
2023-03-19T15:43:52.444Z,2.47
2023-03-19T15:46:25.445Z,2.20
2023-03-19T15:49:00.925Z,2.13
2023-03-19T15:51:30.502Z,2.13
2023-03-19T15:54:01.616Z,1.60
2023-03-19T15:56:31.528Z,2.83
2023-03-19T15:59:01.081Z,2.63
2023-03-19T16:01:30.991Z,1.93
2023-03-19T16:04:03.274Z,1.90
2023-03-19T16:06:33.451Z,3.60
2023-03-19T16:09:20.871Z,1.83
2023-03-19T16:11:49.264Z,1.63
2023-03-19T16:14:25.475Z,2.80
2023-03-19T16:17:00.900Z,2.10
2023-03-19T16:19:33.886Z,2.10
2023-03-19T16:22:13.166Z,5.50
2023-03-19T16:24:43.317Z,2.37
2023-03-19T16:27:15.987Z,4.43
2023-03-19T16:29:46.277Z,2.40
2023-03-19T16:32:21.335Z,2.80
2023-03-19T16:34:53.911Z,1.93
2023-03-19T16:37:34.823Z,2.20
2023-03-19T16:40:09.555Z,2.57
2023-03-19T16:42:41.822Z,3.23
2023-03-19T16:45:22.638Z,4.50
2023-03-19T16:47:52.328Z,5.70
2023-03-19T16:50:23.759Z,5.17
2023-03-19T16:52:52.268Z,12.13
2023-03-19T16:55:23.411Z,12.67
2023-03-19T16:57:57.266Z,9.80
2023-03-19T17:00:26.819Z,6.67
2023-03-19T17:02:55.839Z,4.17
2023-03-19T17:05:26.836Z,6.17
2023-03-19T17:07:56.302Z,4.60
2023-03-19T17:10:28.820Z,4.57
2023-03-19T17:12:58.317Z,7.20
2023-03-19T17:15:30.295Z,10.17
2023-03-19T17:17:59.489Z,6.50
2023-03-19T17:20:34.304Z,5.33
2023-03-19T17:23:02.874Z,8.47
2023-03-19T17:25:31.979Z,6.13
2023-03-19T17:28:00.562Z,6.83
2023-03-19T17:30:29.297Z,3.40
2023-03-19T17:32:57.901Z,4.80
2023-03-19T17:35:26.677Z,9.67
2023-03-19T17:37:56.619Z,5.90
2023-03-19T17:40:29.382Z,5.67
2023-03-19T17:42:58.390Z,4.47
2023-03-19T17:45:29.986Z,5.03
2023-03-19T17:47:59.389Z,9.43
2023-03-19T17:50:31.544Z,3.30
2023-03-19T17:53:01.815Z,7.83
2023-03-19T17:55:31.303Z,5.60
2023-03-19T17:57:59.572Z,8.30
2023-03-19T18:00:27.942Z,4.27
2023-03-19T18:02:57.197Z,7.10
2023-03-19T18:05:26.808Z,6.47
2023-03-19T18:07:56.654Z,5.07
2023-03-19T18:10:30.393Z,5.43
2023-03-19T18:13:00.280Z,3.80
2023-03-19T18:15:29.320Z,3.57
2023-03-19T18:17:59.914Z,6.10
2023-03-19T18:20:32.641Z,5.40
2023-03-19T18:23:01.364Z,6.30
2023-03-19T18:25:32.439Z,3.37
2023-03-19T18:28:00.868Z,4.60
2023-03-19T18:30:31.489Z,3.53
2023-03-19T18:33:02.637Z,6.23
2023-03-19T18:35:33.534Z,15.97
2023-03-19T18:38:02.270Z,19.40
2023-03-19T18:40:34.178Z,14.57
2023-03-19T18:43:02.635Z,16.93
2023-03-19T18:45:32.780Z,11.00
2023-03-19T18:48:01.478Z,8.80
2023-03-19T18:50:32.698Z,5.67
2023-03-19T18:53:01.248Z,6.47
2023-03-19T18:55:34.103Z,5.03
2023-03-19T18:58:03.549Z,7.37
2023-03-19T19:00:34.876Z,5.07
2023-03-19T19:03:04.429Z,7.17
2023-03-19T19:05:34.510Z,7.00
2023-03-19T19:08:04.091Z,8.60
2023-03-19T19:10:35.757Z,8.90
2023-03-19T19:13:04.659Z,11.07
2023-03-19T19:15:35.959Z,11.43
2023-03-19T19:18:14.381Z,18.13
2023-03-19T19:20:42.685Z,13.20
2023-03-19T19:23:11.377Z,16.00
2023-03-19T19:25:41.388Z,21.13
2023-03-19T19:28:17.952Z,19.50
2023-03-19T19:30:46.745Z,17.17
2023-03-19T19:33:18.528Z,14.00
2023-03-19T19:35:47.348Z,20.37
2023-03-19T19:38:20.169Z,16.50
2023-03-19T19:40:52.028Z,18.23
2023-03-19T19:43:22.971Z,16.90
2023-03-19T19:45:53.739Z,14.63
2023-03-19T19:48:24.654Z,17.20
2023-03-19T19:50:54.093Z,15.03
2023-03-19T19:53:24.733Z,13.60
2023-03-19T19:55:54.784Z,17.10
2023-03-19T19:58:25.999Z,19.23
2023-03-19T20:01:03.366Z,14.97
2023-03-19T20:03:34.696Z,17.40
2023-03-19T20:06:03.456Z,16.50
2023-03-19T20:08:32.896Z,16.67
2023-03-19T20:11:02.598Z,16.13
2023-03-19T20:13:34.715Z,21.50
2023-03-19T20:16:04.531Z,17.90
2023-03-19T20:18:35.720Z,15.93
2023-03-19T20:21:04.218Z,17.47
2023-03-19T20:23:32.720Z,18.47
2023-03-19T20:26:02.971Z,16.60
2023-03-19T20:28:35.535Z,16.70
2023-03-19T20:31:05.896Z,16.30
2023-03-19T20:33:39.362Z,14.53
2023-03-19T20:36:08.374Z,14.20
2023-03-19T20:38:37.058Z,15.03
2023-03-19T20:41:15.711Z,16.43
2023-03-19T20:43:44.010Z,17.90
2023-03-19T20:46:13.784Z,16.33
2023-03-19T20:48:42.268Z,16.50
2023-03-19T20:51:17.453Z,17.73
2023-03-19T20:53:46.186Z,17.03
2023-03-19T20:56:17.826Z,17.93
2023-03-19T20:58:46.783Z,15.13
2023-03-19T21:01:15.628Z,15.27
2023-03-19T21:03:44.359Z,17.47
2023-03-19T21:06:18.128Z,15.93
2023-03-19T21:08:49.027Z,13.87
2023-03-19T21:11:21.134Z,13.70
2023-03-19T21:13:52.130Z,16.37
2023-03-19T21:16:22.848Z,17.83
2023-03-19T21:18:51.998Z,17.23
2023-03-19T21:21:29.690Z,15.57
2023-03-19T21:24:02.202Z,16.30
2023-03-19T21:26:32.163Z,13.27
2023-03-19T21:29:04.271Z,10.70
2023-03-19T21:31:33.501Z,11.57
2023-03-19T21:34:01.937Z,8.10
2023-03-19T21:36:30.686Z,11.73
2023-03-19T21:38:59.141Z,7.90
2023-03-19T21:41:32.920Z,8.03
2023-03-19T21:44:07.312Z,8.83
2023-03-19T21:46:36.888Z,7.27
2023-03-19T21:49:07.667Z,7.50
2023-03-19T21:51:36.048Z,7.17
2023-03-19T21:54:05.733Z,7.60
2023-03-19T21:56:38.990Z,6.30
2023-03-19T21:59:14.753Z,8.63
2023-03-19T22:01:43.505Z,6.57
2023-03-19T22:04:12.099Z,7.97
2023-03-19T22:06:41.556Z,6.43
2023-03-19T22:09:13.124Z,5.97
2023-03-19T22:11:42.689Z,7.70
2023-03-19T22:14:19.249Z,7.90
2023-03-19T22:16:52.404Z,5.93
2023-03-19T22:19:21.760Z,9.80
2023-03-19T22:21:50.533Z,8.60
2023-03-19T22:24:18.866Z,6.70
2023-03-19T22:26:49.536Z,6.30
2023-03-19T22:29:23.581Z,6.50
2023-03-19T22:31:53.253Z,7.07
2023-03-19T22:34:24.399Z,5.60
2023-03-19T22:36:52.743Z,6.37
2023-03-19T22:39:21.348Z,7.00
2023-03-19T22:41:50.450Z,6.70
2023-03-19T22:44:26.096Z,7.70
2023-03-19T22:46:55.306Z,7.07
2023-03-19T22:49:24.750Z,7.57
2023-03-19T22:51:53.278Z,7.93
2023-03-19T22:54:21.612Z,7.40
2023-03-19T22:56:49.932Z,7.77
2023-03-19T22:59:18.757Z,8.83
2023-03-19T23:01:49.591Z,6.80
2023-03-19T23:04:23.970Z,6.10
2023-03-19T23:06:52.966Z,8.33
2023-03-19T23:09:24.092Z,8.03
2023-03-19T23:11:53.696Z,11.60
2023-03-19T23:14:30.204Z,7.90
2023-03-19T23:17:03.305Z,8.20
2023-03-19T23:19:33.761Z,7.53
2023-03-19T23:22:04.830Z,7.27
2023-03-19T23:24:33.751Z,10.17
2023-03-19T23:27:03.498Z,8.70
2023-03-19T23:29:35.311Z,5.73
2023-03-19T23:32:05.954Z,8.33
2023-03-19T23:34:42.562Z,7.20
2023-03-19T23:37:18.242Z,6.30
2023-03-19T23:39:47.704Z,6.30
2023-03-19T23:42:27.594Z,7.20
2023-03-19T23:44:59.401Z,7.23
2023-03-19T23:47:31.692Z,8.73
2023-03-19T23:50:00.512Z,6.70
2023-03-19T23:52:28.851Z,6.43
2023-03-19T23:54:57.554Z,7.20
2023-03-19T23:57:27.529Z,6.07
2023-03-19T23:59:56.539Z,7.47
